Time;durP1;ratioP1;P1;durP2;ratioP2;P2;SDS_P1;SDS_P2;PMS_P1;PMS_P2;Temp;Humidity;BMP_temperature;BMP_pressure;BME280_temperature;BME280_humidity;BME280_pressure;Samples;Min_cycle;Max_cycle;Signal;HPM_P1;HPM_P2
2021/06/10 00:01:35;;;;;;;5.42;4.58;;;;;;;10.80;67.54;99939.58;1772443;80;21001;-65
2021/06/10 00:04:01;;;;;;;7.55;5.70;;;;;;;10.78;67.59;99938.80;1736760;81;22321;-65
2021/06/10 00:06:28;;;;;;;7.92;5.22;;;;;;;10.74;67.61;99938.55;1743428;81;21539;-65
2021/06/10 00:08:54;;;;;;;5.55;4.47;;;;;;;10.71;67.81;99942.61;1769153;80;21022;-65
2021/06/10 00:11:21;;;;;;;8.50;4.50;;;;;;;10.70;67.83;99944.84;1742471;81;21486;-65
2021/06/10 00:13:48;;;;;;;6.33;4.60;;;;;;;10.69;68.04;99931.38;1761890;80;21061;-65
2021/06/10 00:16:16;;;;;;;9.67;5.80;;;;;;;10.68;68.09;99929.69;1736069;82;21443;-65
2021/06/10 00:18:46;;;;;;;7.03;4.78;;;;;;;10.69;68.25;99932.68;1772728;80;21675;-65
2021/06/10 00:21:12;;;;;;;6.35;4.17;;;;;;;10.71;68.37;99934.31;1744035;81;20999;-65
2021/06/10 00:23:38;;;;;;;8.05;4.42;;;;;;;10.75;68.45;99936.32;1770215;80;21004;-65
2021/06/10 00:26:05;;;;;;;4.80;4.33;;;;;;;10.77;68.57;99929.27;1745752;81;21073;-66
2021/06/10 00:28:32;;;;;;;5.47;4.20;;;;;;;10.80;68.65;99926.98;1768062;80;21535;-65
2021/06/10 00:30:59;;;;;;;5.67;4.70;;;;;;;10.81;68.71;99923.02;1769502;80;21030;-65
2021/06/10 00:33:26;;;;;;;6.00;4.42;;;;;;;10.82;68.79;99925.16;1742517;81;21039;-65
2021/06/10 00:35:52;;;;;;;6.70;4.60;;;;;;;10.83;68.81;99921.62;1759353;79;20980;-65
2021/06/10 00:38:19;;;;;;;5.08;4.45;;;;;;;10.82;68.89;99919.47;1740402;81;21060;-65
2021/06/10 00:40:46;;;;;;;6.12;5.53;;;;;;;10.83;68.97;99918.55;1758995;81;21002;-65
2021/06/10 00:43:12;;;;;;;7.05;5.55;;;;;;;10.83;69.08;99922.46;1770313;79;20977;-65
2021/06/10 00:45:39;;;;;;;6.97;4.35;;;;;;;10.84;69.13;99915.03;1771006;79;21045;-65
2021/06/10 00:48:07;;;;;;;4.83;4.30;;;;;;;10.83;69.24;99915.93;1768987;79;20911;-65
2021/06/10 00:50:38;;;;;;;8.20;4.78;;;;;;;10.80;69.28;99918.69;1769821;79;20989;-65
2021/06/10 00:53:06;;;;;;;7.28;4.83;;;;;;;10.76;69.22;99917.14;1769016;79;22215;-65
2021/06/10 00:55:33;;;;;;;;;;;;;;;10.71;69.13;99921.72;1739582;81;20916;-65
2021/06/10 00:57:59;;;;;;;8.65;5.40;;;;;;;10.64;69.39;99915.06;1768917;81;20139;-65
2021/06/10 01:00:26;;;;;;;6.42;5.75;;;;;;;10.53;69.31;99916.41;1763934;80;21014;-65
2021/06/10 01:02:53;;;;;;;6.83;5.70;;;;;;;10.49;69.44;99913.98;1772196;79;21328;-65
2021/06/10 01:05:21;;;;;;;10.93;6.05;;;;;;;10.44;69.55;99915.47;1762497;79;21123;-65
2021/06/10 01:07:57;;;;;;;;;;;;;;;10.39;69.48;99919.20;1744849;81;21021;-65
2021/06/10 01:10:48;;;;;;;7.42;6.22;;;;;;;10.30;69.76;99919.14;1770148;80;20273;-65
2021/06/10 01:13:40;;;;;;;5.95;4.97;;;;;;;10.26;69.82;99914.95;1742680;81;21548;-65
2021/06/10 01:16:08;;;;;;;8.35;5.80;;;;;;;10.21;69.93;99915.59;1767322;79;21508;-65
2021/06/10 01:18:38;;;;;;;9.70;5.75;;;;;;;10.20;70.13;99912.61;1766365;79;21024;-65
2021/06/10 01:21:06;;;;;;;7.67;6.67;;;;;;;10.18;70.19;99915.27;1748052;80;20987;-65
2021/06/10 01:24:01;;;;;;;6.30;4.80;;;;;;;10.18;70.32;99917.03;1760758;79;20959;-65
2021/06/10 01:27:05;;;;;;;7.60;6.33;;;;;;;10.17;70.26;99911.44;1761756;80;20943;-65
2021/06/10 01:29:33;;;;;;;9.73;5.62;;;;;;;10.17;70.48;99912.74;1757555;80;22194;-65
2021/06/10 01:32:00;;;;;;;7.28;6.08;;;;;;;10.17;70.49;99917.96;1763071;80;22235;-65
2021/06/10 01:34:27;;;;;;;9.93;6.58;;;;;;;10.17;70.61;99910.13;1763373;79;21280;-65
2021/06/10 01:36:55;;;;;;;5.78;5.10;;;;;;;10.17;70.75;99912.74;1765863;79;20938;-65
2021/06/10 01:39:27;;;;;;;8.40;6.72;;;;;;;10.17;70.70;99910.13;1753004;79;21685;-65
2021/06/10 01:41:55;;;;;;;13.35;5.15;;;;;;;10.17;70.78;99906.22;1752288;81;21040;-65
2021/06/10 01:44:41;;;;;;;;;;;;;;;10.16;70.80;99909.72;1749662;81;21120;-64
2021/06/10 01:47:33;;;;;;;7.50;6.40;;;;;;;10.15;71.10;99904.13;1726516;81;20084;-64
2021/06/10 01:50:25;;;;;;;7.03;5.55;;;;;;;10.14;71.04;99903.71;1748761;79;21131;-65
2021/06/10 01:53:05;;;;;;;8.20;6.70;;;;;;;10.13;71.09;99905.94;1760194;80;21034;-65
2021/06/10 01:55:56;;;;;;;;;;;;;;;;;;;;;
2021/06/10 01:58:24;;;;;;;7.75;6.72;;;;;;;10.08;71.00;99904.39;1757144;79;22694;-64
2021/06/10 02:01:11;;;;;;;9.45;6.55;;;;;;;9.96;70.92;99907.49;1776067;79;20990;-65
2021/06/10 02:03:42;;;;;;;7.83;6.90;;;;;;;9.87;70.98;99909.19;1757514;80;20992;-64
2021/06/10 02:06:09;;;;;;;8.15;6.22;;;;;;;9.87;71.38;99907.89;1766188;79;21042;-65
2021/06/10 02:08:38;;;;;;;;;;;;;;;9.89;71.55;99908.67;1771426;79;21006;-65
2021/06/10 02:11:05;;;;;;;12.85;7.65;;;;;;;9.91;71.81;99912.05;1765654;79;21497;-65
2021/06/10 02:13:33;;;;;;;;;;;;;;;9.96;71.80;99907.49;1760998;79;21016;-65
2021/06/10 02:16:07;;;;;;;8.40;7.20;;;;;;;9.99;72.02;99907.36;1765047;79;20111;-65
2021/06/10 02:18:35;;;;;;;11.93;6.97;;;;;;;10.05;71.89;99901.91;1761176;79;20998;-65
2021/06/10 02:21:05;;;;;;;6.87;5.65;;;;;;;10.09;71.93;99898.25;1762825;80;21813;-65
2021/06/10 02:23:32;;;;;;;10.00;7.55;;;;;;;10.14;71.85;99900.67;1780347;79;21089;-65
2021/06/10 02:25:58;;;;;;;9.80;6.37;;;;;;;10.17;71.89;99897.09;1739141;80;21032;-64
2021/06/10 02:28:25;;;;;;;7.08;6.37;;;;;;;10.21;72.02;99896.02;1757004;80;20905;-65
2021/06/10 02:30:51;;;;;;;10.38;6.25;;;;;;;10.27;72.02;99894.48;1766134;79;20922;-65
2021/06/10 02:33:18;;;;;;;6.03;5.42;;;;;;;10.30;72.01;99896.95;1776052;79;21661;-65
2021/06/10 02:35:47;;;;;;;8.30;6.80;;;;;;;10.35;72.12;99903.30;1762850;79;22333;-65
2021/06/10 02:38:15;;;;;;;6.53;5.62;;;;;;;10.39;72.10;99900.92;1734063;81;21082;-65
2021/06/10 02:40:45;;;;;;;12.60;7.50;;;;;;;10.45;72.18;99905.44;1714033;81;21057;-65
2021/06/10 02:43:13;;;;;;;11.97;6.08;;;;;;;10.65;72.51;99908.94;1758829;80;20947;-65
2021/06/10 02:45:43;;;;;;;7.22;4.90;;;;;;;11.38;73.05;99902.92;1761862;80;21023;-65
2021/06/10 02:48:12;;;;;;;5.55;4.55;;;;;;;12.28;72.70;99897.62;1764415;80;21108;-65
2021/06/10 02:50:41;;;;;;;6.58;4.45;;;;;;;13.31;72.38;99896.56;1761479;80;20997;-65
2021/06/10 02:53:15;;;;;;;5.50;4.50;;;;;;;14.20;71.48;99894.91;1746264;81;21041;-65
2021/06/10 02:55:45;;;;;;;10.68;5.25;;;;;;;15.05;71.17;99898.50;1759140;80;20962;-66
2021/06/10 02:58:22;;;;;;;7.47;4.53;;;;;;;15.98;70.82;99893.41;1767363;80;20926;-66
2021/06/10 03:00:50;;;;;;;6.33;4.35;;;;;;;16.86;70.60;99889.57;1747170;80;21067;-66
2021/06/10 03:03:18;;;;;;;6.58;3.98;;;;;;;17.68;69.87;99887.55;1762678;80;20942;-66
2021/06/10 03:05:46;;;;;;;8.83;4.35;;;;;;;18.51;69.38;99889.23;1765519;80;20981;-64
2021/06/10 03:08:15;;;;;;;7.40;4.47;;;;;;;19.22;68.80;99882.36;1769861;79;20982;-64
2021/06/10 03:10:43;;;;;;;20.02;4.75;;;;;;;20.02;68.71;99885.07;1761341;79;21055;-64
2021/06/10 03:13:14;;;;;;;8.73;4.62;;;;;;;20.59;67.46;99875.81;1754026;80;21182;-65
2021/06/10 03:15:42;;;;;;;5.80;3.90;;;;;;;20.98;66.78;99872.81;1745359;80;21793;-64
2021/06/10 03:18:10;;;;;;;5.05;3.90;;;;;;;21.49;66.73;99866.98;1766941;80;21017;-64
2021/06/10 03:20:37;;;;;;;10.10;3.62;;;;;;;22.27;67.07;99870.94;1745293;80;20986;-64
2021/06/10 03:23:03;;;;;;;;;;;;;;;23.01;66.14;99874.08;1767661;79;21328;-65
2021/06/10 03:25:30;;;;;;;;;;;;;;;23.68;64.91;99874.10;1767397;80;22003;-64
2021/06/10 03:27:57;;;;;;;16.62;3.95;;;;;;;24.28;64.22;99864.09;1746352;81;20758;-65
2021/06/10 03:30:24;;;;;;;;;;;;;;;24.67;63.34;99867.65;1766067;79;21596;-65
2021/06/10 03:32:52;;;;;;;12.98;4.65;;;;;;;24.72;62.08;99861.84;1763418;80;20140;-65
2021/06/10 03:35:21;;;;;;;16.95;4.50;;;;;;;24.88;62.43;99861.91;1745138;81;21807;-64
2021/06/10 03:37:48;;;;;;;22.62;4.12;;;;;;;25.19;62.09;99866.20;1741106;81;22452;-65
2021/06/10 03:40:17;;;;;;;26.42;4.58;;;;;;;25.52;60.78;99860.92;1742177;81;21022;-65
2021/06/10 03:42:44;;;;;;;15.38;4.20;;;;;;;25.76;60.31;99861.93;1738829;80;20997;-66
2021/06/10 03:45:13;;;;;;;;;;;;;;;26.33;60.46;99853.88;1742297;81;21003;-65
2021/06/10 03:47:43;;;;;;;26.55;5.08;;;;;;;26.55;59.03;99855.86;1744062;81;20104;-66
2021/06/10 03:50:11;;;;;;;10.10;3.15;;;;;;;26.91;58.59;99858.03;1772562;80;21539;-66
2021/06/10 03:52:38;;;;;;;6.33;3.45;;;;;;;27.40;59.09;99863.16;1770647;80;20900;-65
2021/06/10 03:55:08;;;;;;;44.35;6.00;;;;;;;28.15;58.14;99854.85;1773414;80;20989;-65
2021/06/10 03:57:37;;;;;;;35.03;6.42;;;;;;;28.47;56.99;99851.52;1768609;80;20945;-66
2021/06/10 04:00:07;;;;;;;7.92;3.67;;;;;;;28.66;56.32;99856.33;1740890;81;21706;-66
2021/06/10 04:02:33;;;;;;;16.82;3.77;;;;;;;29.12;56.21;99854.73;1733590;81;21097;-65
2021/06/10 04:05:00;;;;;;;10.60;3.05;;;;;;;29.50;55.27;99850.48;1767365;80;21577;-67
2021/06/10 04:07:27;;;;;;;21.60;3.50;;;;;;;29.99;54.75;99852.37;1741396;81;21081;-66
2021/06/10 04:09:54;;;;;;;19.95;3.70;;;;;;;30.55;53.97;99846.95;1768959;80;21001;-66
2021/06/10 04:12:21;;;;;;;6.42;2.85;;;;;;;31.03;53.13;99848.02;1775001;80;20999;-66
2021/06/10 04:14:47;;;;;;;10.05;3.12;;;;;;;31.23;52.33;99846.22;1743960;81;22774;-66
2021/06/10 04:17:14;;;;;;;3.80;2.87;;;;;;;31.35;51.11;99845.92;1748773;81;21599;-66
2021/06/10 04:19:40;;;;;;;5.65;2.62;;;;;;;31.38;50.66;99853.64;1749012;81;20923;-66
2021/06/10 04:22:07;;;;;;;16.50;3.45;;;;;;;31.52;49.68;99846.92;1760475;79;21044;-66
2021/06/10 04:24:34;;;;;;;57.95;6.30;;;;;;;31.52;48.96;99846.92;1748902;80;21017;-66
2021/06/10 04:27:01;;;;;;;40.55;7.10;;;;;;;31.83;48.84;99849.83;1745031;81;22337;-65
2021/06/10 04:29:28;;;;;;;14.25;3.62;;;;;;;32.18;48.20;99842.89;1736798;81;21487;-64
2021/06/10 04:31:54;;;;;;;23.73;3.90;;;;;;;32.45;46.74;99844.16;1744964;81;21013;-64
2021/06/10 04:34:22;;;;;;;21.12;3.72;;;;;;;32.35;45.91;99843.77;1769084;80;21017;-64
2021/06/10 04:36:49;;;;;;;11.03;3.08;;;;;;;31.71;44.72;99838.01;1742600;81;21058;-64
2021/06/10 04:39:16;;;;;;;6.20;2.35;;;;;;;31.46;44.80;99843.70;1782911;79;22108;-64
2021/06/10 04:41:42;;;;;;;12.33;2.77;;;;;;;31.37;43.55;99845.24;1747141;81;21001;-64
2021/06/10 04:44:09;;;;;;;5.33;2.12;;;;;;;31.21;43.60;99840.20;1779181;79;20939;-64
2021/06/10 04:46:35;;;;;;;11.28;2.80;;;;;;;31.47;43.01;99837.26;1749113;81;20969;-65
2021/06/10 04:49:03;;;;;;;79.53;7.22;;;;;;;31.26;42.90;99837.72;1781046;78;21508;-64
2021/06/10 04:51:30;;;;;;;75.80;7.35;;;;;;;31.02;42.09;99835.58;1773693;79;21098;-64
2021/06/10 04:53:56;;;;;;;30.95;4.37;;;;;;;31.44;41.63;99832.58;1774849;79;21042;-64
2021/06/10 04:56:24;;;;;;;21.55;3.75;;;;;;;31.23;41.44;99832.73;1775066;79;21005;-64
2021/06/10 04:58:50;;;;;;;18.95;3.52;;;;;;;31.23;41.44;99832.73;1778972;78;21553;-65
2021/06/10 05:01:17;;;;;;;11.68;3.25;;;;;;;31.71;41.75;99838.01;1776765;79;20950;-64
2021/06/10 05:03:43;;;;;;;11.28;2.87;;;;;;;32.11;41.18;99832.61;1773354;79;21162;-65
2021/06/10 05:06:10;;;;;;;15.63;2.60;;;;;;;32.50;40.56;99844.39;1779026;78;21018;-63
2021/06/10 05:08:37;;;;;;;16.23;2.90;;;;;;;32.38;39.00;99835.23;1774411;79;21544;-64
2021/06/10 05:11:03;;;;;;;32.58;4.42;;;;;;;31.70;39.13;99837.67;1774805;79;21037;-65
2021/06/10 05:13:30;;;;;;;14.90;3.00;;;;;;;31.21;39.05;99841.55;1774698;79;20916;-65
2021/06/10 05:15:57;;;;;;;11.83;2.83;;;;;;;31.26;38.39;99840.42;1776675;79;21067;-64
2021/06/10 05:18:23;;;;;;;8.85;2.52;;;;;;;30.90;38.31;99840.20;1777367;79;21549;-64
2021/06/10 05:20:50;;;;;;;9.75;2.55;;;;;;;30.64;38.27;99845.44;1786747;79;20965;-64
2021/06/10 05:23:17;;;;;;;9.58;1.72;;;;;;;30.74;38.26;99837.83;1761474;79;21025;-64
2021/06/10 05:25:44;;;;;;;84.10;9.13;;;;;;;30.78;38.24;99844.47;1782525;79;21040;-64
2021/06/10 05:28:11;;;;;;;12.55;2.58;;;;;;;30.89;38.17;99842.59;1783628;79;21090;-64
2021/06/10 05:30:37;;;;;;;20.80;3.10;;;;;;;30.99;37.86;99837.64;1772892;79;21030;-64
2021/06/10 05:33:04;;;;;;;18.45;3.27;;;;;;;31.13;37.66;99839.03;1782362;79;20943;-64
2021/06/10 05:35:31;;;;;;;29.18;5.58;;;;;;;30.95;37.51;99831.00;1778229;79;20998;-64
2021/06/10 05:37:58;;;;;;;43.40;7.97;;;;;;;30.95;37.13;99840.44;1753201;79;21092;-64
2021/06/10 05:40:25;;;;;;;33.90;8.93;;;;;;;30.83;37.18;99837.16;1737022;81;22072;-64
2021/06/10 05:42:53;;;;;;;33.88;6.65;;;;;;;30.67;36.80;99832.91;1764048;80;20956;-64
2021/06/10 05:45:20;;;;;;;13.30;3.02;;;;;;;30.56;36.74;99839.73;1753402;80;20996;-64
2021/06/10 05:47:47;;;;;;;23.77;4.50;;;;;;;30.44;36.43;99836.73;1759260;80;21020;-64
2021/06/10 05:50:14;;;;;;;18.15;3.70;;;;;;;30.19;36.74;99835.52;1738207;81;20966;-65
2021/06/10 05:52:42;;;;;;;25.32;4.00;;;;;;;30.30;36.62;99843.08;1733914;81;21274;-64
2021/06/10 05:55:10;;;;;;;25.70;4.95;;;;;;;30.39;36.49;99838.37;1758147;81;20938;-64
2021/06/10 05:57:37;;;;;;;22.65;4.53;;;;;;;30.64;37.05;99841.40;1768326;79;21001;-65
2021/06/10 06:00:07;;;;;;;8.30;1.60;;;;;;;30.70;36.27;99837.92;1750946;80;20978;-65
2021/06/10 06:02:34;;;;;;;10.18;2.08;;;;;;;27.60;34.58;99819.77;1729068;82;21046;-64
2021/06/10 06:05:01;;;;;;;11.22;2.60;;;;;;;27.60;34.58;99819.77;1754998;80;21307;-64
2021/06/10 06:07:28;;;;;;;11.88;2.10;;;;;;;27.42;35.23;99839.69;1753965;80;20934;-64
2021/06/10 06:09:55;;;;;;;60.70;9.00;;;;;;;27.30;35.99;99839.75;1755276;81;21490;-64
2021/06/10 06:12:23;;;;;;;17.12;4.20;;;;;;;27.40;35.88;99835.52;1730281;81;20987;-64
2021/06/10 06:14:50;;;;;;;34.38;4.45;;;;;;;27.11;35.71;99844.20;1762327;79;21483;-64
2021/06/10 06:17:17;;;;;;;27.85;3.35;;;;;;;27.06;35.98;99838.55;1766796;80;21574;-64
2021/06/10 06:19:45;;;;;;;39.98;5.45;;;;;;;26.90;35.16;99840.30;1740065;81;21060;-64
2021/06/10 06:22:12;;;;;;;11.03;2.50;;;;;;;26.88;36.15;99846.33;1762295;80;21011;-64
2021/06/10 06:24:39;;;;;;;9.93;1.75;;;;;;;26.45;35.11;99847.66;1752936;80;21038;-64
2021/06/10 06:27:08;;;;;;;14.75;2.30;;;;;;;25.74;35.76;99845.20;1736417;81;21009;-63
2021/06/10 06:29:35;;;;;;;17.30;3.02;;;;;;;25.65;36.15;99849.72;1725768;82;21086;-64
2021/06/10 06:32:03;;;;;;;25.88;4.28;;;;;;;25.10;36.54;99851.13;1763628;80;20946;-63
2021/06/10 06:34:30;;;;;;;4.22;1.72;;;;;;;24.82;36.91;99859.06;1763284;80;20942;-63
2021/06/10 06:36:57;;;;;;;13.45;2.33;;;;;;;25.14;37.01;99861.84;1742059;81;20985;-64
2021/06/10 06:39:23;;;;;;;12.80;2.50;;;;;;;24.89;36.68;99859.56;1754529;81;20966;-63
2021/06/10 06:41:50;;;;;;;9.08;2.40;;;;;;;24.61;37.47;99866.95;1784108;79;21546;-63
2021/06/10 06:44:17;;;;;;;60.33;7.97;;;;;;;25.07;37.89;99862.15;1785541;79;21018;-63
2021/06/10 06:46:43;;;;;;;38.75;3.90;;;;;;;25.64;38.06;99862.27;1776887;79;20965;-64
2021/06/10 06:49:11;;;;;;;8.80;1.70;;;;;;;25.60;37.22;99866.28;1746482;79;21027;-64
2021/06/10 06:51:38;;;;;;;10.28;2.02;;;;;;;25.14;37.20;99875.20;1747219;81;21104;-64
2021/06/10 06:54:05;;;;;;;11.30;2.20;;;;;;;24.79;37.80;99871.73;1772011;80;21899;-63
2021/06/10 06:56:32;;;;;;;11.08;2.10;;;;;;;24.24;38.11;99880.56;1768426;79;20926;-64
2021/06/10 06:58:59;;;;;;;24.80;4.10;;;;;;;24.08;38.50;99874.61;1769232;79;20928;-63
2021/06/10 07:01:26;;;;;;;64.17;11.75;;;;;;;24.29;38.58;99873.77;1773466;79;21025;-64
2021/06/10 07:03:52;;;;;;;25.00;5.55;;;;;;;24.52;39.03;99873.26;1778112;79;21017;-63
2021/06/10 07:06:19;;;;;;;63.98;8.23;;;;;;;24.70;38.83;99881.18;1768915;80;22222;-63
2021/06/10 07:08:46;;;;;;;195.65;25.68;;;;;;;24.49;38.76;99878.92;1748987;81;20958;-63
2021/06/10 07:11:12;;;;;;;97.40;14.07;;;;;;;24.37;39.25;99876.12;1766890;79;21238;-63
2021/06/10 07:13:39;;;;;;;35.45;4.72;;;;;;;24.58;39.48;99880.63;1787939;79;20910;-63
2021/06/10 07:16:06;;;;;;;8.25;1.82;;;;;;;24.70;39.09;99884.71;1775174;79;21584;-63
2021/06/10 07:18:32;;;;;;;13.85;2.27;;;;;;;24.00;39.54;99880.75;1772338;78;21069;-63
2021/06/10 07:20:59;;;;;;;;;;;;;;;23.23;40.29;99882.16;1773910;78;20942;-63
2021/06/10 07:23:26;;;;;;;174.80;21.95;;;;;;;23.29;40.99;99880.72;1767200;79;20228;-63
2021/06/10 07:25:53;;;;;;;35.15;4.53;;;;;;;23.74;41.17;99884.67;1770074;79;21464;-64
2021/06/10 07:28:20;;;;;;;14.18;3.42;;;;;;;24.28;40.68;99884.11;1753799;80;20985;-63
2021/06/10 07:30:46;;;;;;;;;;;;;;;23.73;40.82;99886.18;1781394;79;21155;-63
2021/06/10 07:33:14;;;;;;;8.63;2.85;;;;;;;23.21;41.37;99893.45;1781080;79;20189;-63
2021/06/10 07:35:40;;;;;;;5.92;2.08;;;;;;;23.03;41.81;99897.92;1752387;81;21033;-63
2021/06/10 07:38:10;;;;;;;13.95;2.30;;;;;;;22.79;41.69;99892.58;1771912;79;21536;-63
2021/06/10 07:40:37;;;;;;;8.05;2.17;;;;;;;22.31;42.16;99897.08;1770082;80;21049;-63
2021/06/10 07:43:05;;;;;;;9.03;2.70;;;;;;;22.15;42.62;99894.63;1783693;79;21168;-63
2021/06/10 07:45:32;;;;;;;23.90;4.20;;;;;;;21.68;43.00;99890.91;1750055;81;21058;-63
2021/06/10 07:47:59;;;;;;;14.87;3.75;;;;;;;21.82;43.70;99897.62;1782575;79;20957;-63
2021/06/10 07:50:26;;;;;;;37.55;4.47;;;;;;;22.35;43.86;99889.67;1782996;79;21001;-63
2021/06/10 07:52:53;;;;;;;17.05;3.17;;;;;;;22.83;44.00;99889.98;1775220;79;21015;-62
2021/06/10 07:55:21;;;;;;;32.23;3.62;;;;;;;23.07;43.49;99893.95;1754795;81;21124;-63
2021/06/10 07:57:50;;;;;;;56.20;5.97;;;;;;;22.85;43.77;99891.98;1763949;81;21672;-63
2021/06/10 08:00:19;;;;;;;21.75;3.77;;;;;;;22.90;43.87;99892.89;1760329;81;21566;-62
2021/06/10 08:02:46;;;;;;;20.00;4.00;;;;;;;22.56;43.32;99888.96;1761901;79;21044;-63
2021/06/10 08:05:13;;;;;;;;;;;;;;;22.39;44.27;99891.55;1791600;79;21013;-62
2021/06/10 08:07:42;;;;;;;73.15;7.35;;;;;;;22.68;44.36;99896.77;1789723;79;21099;-62
2021/06/10 08:10:12;;;;;;;12.65;3.45;;;;;;;22.84;44.50;99893.48;1764017;79;21060;-63
2021/06/10 08:12:38;;;;;;;9.30;2.70;;;;;;;22.71;44.03;99891.14;1767899;79;21040;-63
2021/06/10 08:15:07;;;;;;;13.43;2.80;;;;;;;22.74;44.48;99898.83;1784984;79;20989;-63
2021/06/10 08:17:35;;;;;;;9.88;2.20;;;;;;;22.24;44.56;99893.83;1789259;79;20993;-66
2021/06/10 08:20:09;;;;;;;9.05;2.65;;;;;;;22.08;44.90;99895.21;1766675;81;21214;-65
2021/06/10 08:22:39;;;;;;;70.35;10.40;;;;;;;21.72;44.79;99891.45;1760927;81;21502;-64
2021/06/10 08:25:07;;;;;;;65.80;9.13;;;;;;;21.96;45.60;99892.37;1775116;79;20989;-64
2021/06/10 08:27:35;;;;;;;28.62;4.33;;;;;;;22.42;45.60;99894.75;1776538;79;21056;-65
2021/06/10 08:30:05;;;;;;;31.73;4.08;;;;;;;22.84;45.08;99894.31;1769168;79;20985;-65
2021/06/10 08:32:33;;;;;;;14.50;3.25;;;;;;;22.70;44.97;99901.45;1775679;79;21060;-64
2021/06/10 08:35:00;;;;;;;12.00;2.80;;;;;;;22.53;44.61;99898.56;1785677;79;21075;-64
2021/06/10 08:37:26;;;;;;;57.98;5.92;;;;;;;22.19;44.82;99897.41;1778688;79;20912;-65
2021/06/10 08:39:53;;;;;;;47.85;5.87;;;;;;;22.39;45.45;99903.02;1769619;79;22217;-64
2021/06/10 08:42:19;;;;;;;143.62;20.23;;;;;;;22.52;45.27;99898.23;1779804;79;20998;-64
2021/06/10 08:44:47;;;;;;;75.75;12.82;;;;;;;22.90;45.60;99899.05;1748708;81;21936;-65
2021/06/10 08:47:14;;;;;;;13.83;3.50;;;;;;;22.98;44.83;99899.18;1777022;79;21018;-64
2021/06/10 08:49:45;;;;;;;69.70;11.33;;;;;;;22.77;44.69;99894.08;1746376;81;21017;-65
2021/06/10 08:52:12;;;;;;;10.03;2.95;;;;;;;22.89;45.10;99910.69;1778109;79;20950;-65
2021/06/10 08:54:38;;;;;;;9.63;2.12;;;;;;;22.81;44.58;99909.25;1782883;79;21076;-64
2021/06/10 08:57:10;;;;;;;15.80;2.80;;;;;;;22.63;44.25;99907.00;1779480;79;21482;-65
2021/06/10 08:59:36;;;;;;;69.32;10.35;;;;;;;22.10;44.76;99909.21;1785700;79;20985;-64
2021/06/10 09:02:06;;;;;;;11.05;2.42;;;;;;;22.19;44.85;99909.37;1776810;78;21330;-64
2021/06/10 09:04:33;;;;;;;10.18;2.35;;;;;;;21.95;45.17;99909.28;1782708;78;22173;-64
2021/06/10 09:07:01;;;;;;;24.23;3.60;;;;;;;21.97;45.04;99911.31;1781796;78;21531;-64
2021/06/10 09:09:40;;;;;;;28.27;3.47;;;;;;;21.86;45.55;99903.48;1776255;79;21436;-64
2021/06/10 09:12:11;;;;;;;11.43;2.45;;;;;;;21.72;45.04;99909.23;1784605;78;20955;-64
2021/06/10 09:15:00;;;;;;;10.28;2.10;;;;;;;21.74;45.49;99904.63;1781569;79;20899;-64
2021/06/10 09:17:33;;;;;;;14.47;3.22;;;;;;;21.72;45.71;99909.23;1747662;81;20994;-64
2021/06/10 09:20:00;;;;;;;99.30;12.18;;;;;;;21.84;45.78;99914.73;1781568;79;20966;-64
2021/06/10 09:22:31;;;;;;;34.95;4.83;;;;;;;21.84;46.13;99908.09;1780235;79;21100;-64
2021/06/10 09:25:08;;;;;;;37.90;4.12;;;;;;;22.21;46.32;99904.73;1780331;79;21042;-64
2021/06/10 09:27:55;;;;;;;8.15;2.87;;;;;;;22.69;45.83;99911.77;1784020;79;21536;-64
2021/06/10 09:30:49;;;;;;;9.80;2.20;;;;;;;22.32;45.29;99915.20;1766040;79;21350;-64
2021/06/10 09:33:18;;;;;;;5.85;2.40;;;;;;;22.08;45.41;99913.83;1766098;80;20938;-64
2021/06/10 09:35:46;;;;;;;7.25;2.50;;;;;;;21.87;45.30;99921.10;1756031;81;21176;-64
2021/06/10 09:38:22;;;;;;;7.10;2.25;;;;;;;21.55;45.75;99912.92;1767188;79;20966;-64
2021/06/10 09:40:51;;;;;;;5.47;2.52;;;;;;;21.93;46.33;99915.25;1723391;82;20977;-64
2021/06/10 09:43:20;;;;;;;4.25;2.00;;;;;;;22.36;46.00;99918.44;1742709;81;20978;-65
2021/06/10 09:45:53;;;;;;;8.13;1.87;;;;;;;22.07;45.67;99914.81;1742342;81;20948;-64
2021/06/10 09:48:32;;;;;;;8.53;2.40;;;;;;;22.13;46.12;99906.27;1758888;81;21103;-64
2021/06/10 09:51:00;;;;;;;3.20;2.08;;;;;;;22.33;45.84;99914.24;1729519;81;21029;-64
2021/06/10 09:53:29;;;;;;;11.50;2.20;;;;;;;22.17;45.06;99908.64;1755138;80;20951;-64
2021/06/10 09:56:07;;;;;;;9.65;2.70;;;;;;;22.18;45.80;99907.67;1729238;81;21066;-64
2021/06/10 09:58:41;;;;;;;12.10;2.30;;;;;;;22.62;45.78;99902.67;1748795;81;21049;-64
2021/06/10 10:01:20;;;;;;;6.45;2.50;;;;;;;22.41;45.21;99919.69;1756704;81;21941;-64
2021/06/10 10:03:53;;;;;;;6.30;2.50;;;;;;;22.29;45.21;99910.17;1749904;79;20954;-64
2021/06/10 10:06:27;;;;;;;11.10;2.30;;;;;;;22.49;45.65;99925.13;1747701;81;21596;-64
2021/06/10 10:09:04;;;;;;;4.92;2.17;;;;;;;22.50;45.19;99918.81;1750033;81;21627;-64
2021/06/10 10:11:33;;;;;;;12.37;2.83;;;;;;;22.30;45.18;99915.86;1747399;81;21268;-65
2021/06/10 10:14:05;;;;;;;4.55;2.40;;;;;;;22.49;45.16;99929.12;1755712;81;21131;-64
2021/06/10 10:16:36;;;;;;;4.87;1.70;;;;;;;22.13;44.52;99919.56;1751035;80;21056;-64
2021/06/10 10:19:04;;;;;;;6.60;2.30;;;;;;;21.40;45.28;99927.09;1734105;82;20999;-64
2021/06/10 10:21:35;;;;;;;5.33;2.00;;;;;;;21.26;45.97;99914.64;1727283;82;21009;-64
2021/06/10 10:24:07;;;;;;;28.77;3.60;;;;;;;20.88;45.74;99923.69;1719087;82;21001;-64
2021/06/10 10:26:34;;;;;;;13.53;2.45;;;;;;;20.84;46.21;99924.08;1723591;82;22024;-64
2021/06/10 10:29:06;;;;;;;24.70;4.15;;;;;;;21.07;46.42;99930.89;1737504;81;20994;-64
2021/06/10 10:31:34;;;;;;;8.50;2.00;;;;;;;21.45;46.63;99918.70;1757442;81;21470;-64
2021/06/10 10:34:00;;;;;;;6.80;2.62;;;;;;;21.77;45.91;99920.28;1745089;81;20916;-64
2021/06/10 10:36:31;;;;;;;19.92;3.85;;;;;;;21.77;45.73;99922.94;1751317;81;27388;-64
2021/06/10 10:39:08;;;;;;;48.50;7.75;;;;;;;21.59;46.11;99917.45;1743932;80;21082;-64
2021/06/10 10:41:52;;;;;;;;;;;;;;;21.95;46.54;99915.92;1761996;80;21035;-64
2021/06/10 10:44:26;;;;;;;40.10;5.78;;;;;;;21.81;45.60;99921.67;1754871;80;20515;-64
2021/06/10 10:47:09;;;;;;;10.43;2.47;;;;;;;21.86;45.91;99924.26;1750482;81;20993;-64
2021/06/10 10:49:48;;;;;;;7.50;2.05;;;;;;;21.81;44.77;99926.98;1771315;80;21068;-64
2021/06/10 10:52:34;;;;;;;7.72;2.60;;;;;;;21.39;45.98;99941.33;1762950;79;21075;-64
2021/06/10 10:55:22;;;;;;;10.38;2.50;;;;;;;20.86;45.92;99930.09;1750235;81;20978;-66
2021/06/10 10:57:58;;;;;;;7.53;2.20;;;;;;;20.45;46.26;99931.83;1783331;79;21087;-64
2021/06/10 11:00:46;;;;;;;;;;;;;;;20.44;46.87;99946.88;1781040;79;21055;-66
2021/06/10 11:03:27;;;;;;;8.53;1.98;;;;;;;20.40;47.42;99939.33;1779074;78;20112;-65
2021/06/10 11:05:55;;;;;;;12.93;2.10;;;;;;;20.54;47.11;99931.07;1782679;79;21280;-66
2021/06/10 11:08:23;;;;;;;16.67;2.65;;;;;;;20.66;47.01;99921.21;1782317;79;21160;-65
2021/06/10 11:10:57;;;;;;;17.55;2.33;;;;;;;20.76;47.07;99928.25;1785390;79;20959;-65
2021/06/10 11:16:01;;;;;;;29.60;3.30;;;;;;;21.24;47.00;99916.95;1851187;76;22514;-63
2021/06/10 11:18:52;;;;;;;3.65;1.85;;;;;;;21.18;46.73;99914.84;1814132;78;21525;-65
2021/06/10 11:21:46;;;;;;;26.57;3.58;;;;;;;21.01;46.52;99907.54;1807775;77;22341;-64
2021/06/10 11:24:22;;;;;;;4.50;1.67;;;;;;;21.01;47.13;99903.55;1808976;78;21393;-64
2021/06/10 11:27:03;;;;;;;4.28;1.98;;;;;;;20.82;46.32;99910.13;1812334;77;21028;-64
2021/06/10 11:29:30;;;;;;;7.10;1.65;;;;;;;20.56;46.72;99906.59;1744621;80;21497;-65
2021/06/10 11:32:23;;;;;;;8.98;1.60;;;;;;;20.42;47.27;99910.88;1778069;78;20899;-65
2021/06/10 11:34:57;;;;;;;10.85;2.17;;;;;;;20.39;47.44;99908.46;1775180;79;21119;-64
2021/06/10 11:37:27;;;;;;;16.67;2.45;;;;;;;20.08;47.45;99897.34;1757378;80;21564;-63
2021/06/10 11:39:55;;;;;;;15.48;2.80;;;;;;;20.26;48.23;99893.61;1762557;78;20994;-63
2021/06/10 11:42:24;;;;;;;21.23;4.15;;;;;;;20.49;47.76;99896.11;1766582;78;21156;-64
2021/06/10 11:44:55;;;;;;;44.58;4.47;;;;;;;20.91;48.19;99896.04;1770759;79;20962;-65
2021/06/10 11:47:26;;;;;;;17.30;3.25;;;;;;;21.33;47.82;99894.05;1770186;78;21072;-67
2021/06/10 11:49:54;;;;;;;8.10;2.22;;;;;;;21.63;47.28;99889.16;1767733;79;22463;-65